createdAt,value
2018-07-17T00:00:58.183Z,100745.80
2018-07-17T00:03:26.751Z,100735.94
2018-07-17T00:05:55.937Z,100741.08
2018-07-17T00:08:24.465Z,100738.67
2018-07-17T00:10:52.978Z,100746.52
2018-07-17T00:13:21.628Z,100743.20
2018-07-17T00:15:50.201Z,100743.00
2018-07-17T00:18:18.771Z,100737.41
2018-07-17T00:20:47.348Z,100740.99
2018-07-17T00:23:15.869Z,100743.39
2018-07-17T00:25:44.351Z,100742.14
2018-07-17T00:28:12.830Z,100743.14
2018-07-17T00:30:41.504Z,100740.12
2018-07-17T00:33:10.100Z,100738.17
2018-07-17T00:35:39.255Z,100736.95
2018-07-17T00:38:08.074Z,100734.84
2018-07-17T00:40:37.137Z,100730.22
2018-07-17T00:43:05.637Z,100727.30
2018-07-17T00:45:35.166Z,100733.13
2018-07-17T00:48:04.791Z,100731.87
2018-07-17T00:50:33.486Z,100733.78
2018-07-17T00:53:03.068Z,100726.19
2018-07-17T00:55:31.962Z,100727.19
2018-07-17T00:58:00.976Z,100727.84
2018-07-17T01:00:34.851Z,100729.23
2018-07-17T01:03:08.886Z,100731.50
2018-07-17T01:05:42.655Z,100728.17
2018-07-17T01:08:16.365Z,100731.78
2018-07-17T01:10:50.052Z,100725.70
2018-07-17T01:13:22.746Z,100724.59
2018-07-17T01:15:51.748Z,100720.36
2018-07-17T01:18:20.409Z,100721.22
2018-07-17T01:20:48.997Z,100720.95
2018-07-17T01:23:17.707Z,100724.56
2018-07-17T01:25:46.401Z,100724.75
2018-07-17T01:28:15.492Z,100725.61
2018-07-17T01:30:44.476Z,100723.59
2018-07-17T01:33:14.621Z,100719.27
2018-07-17T01:35:43.488Z,100723.72
2018-07-17T01:38:13.384Z,100720.39
2018-07-17T01:40:42.186Z,100724.10
2018-07-17T01:43:10.715Z,100726.84
2018-07-17T01:45:39.359Z,100718.61
2018-07-17T01:48:08.902Z,100720.14
2018-07-17T01:50:37.626Z,100720.70
2018-07-17T01:53:06.150Z,100724.30
2018-07-17T01:55:35.303Z,100726.19
2018-07-17T01:58:03.929Z,100728.03
2018-07-17T02:00:32.408Z,100728.16
2018-07-17T02:03:00.980Z,100717.92
2018-07-17T02:05:29.984Z,100720.66
2018-07-17T02:07:58.708Z,100721.66
2018-07-17T02:10:27.307Z,100718.69
2018-07-17T02:12:55.969Z,100723.41
2018-07-17T02:15:24.615Z,100716.22
2018-07-17T02:17:53.409Z,100709.83
2018-07-17T02:20:21.981Z,100713.82
2018-07-17T02:22:50.555Z,100715.95
2018-07-17T02:25:19.217Z,100712.11
2018-07-17T02:27:48.103Z,100713.15
2018-07-17T02:30:16.739Z,100714.58
2018-07-17T02:32:45.422Z,100708.19
2018-07-17T02:35:14.261Z,100710.40
2018-07-17T02:37:42.930Z,100718.72
2018-07-17T02:40:11.466Z,100718.80
2018-07-17T02:42:40.574Z,100719.25
2018-07-17T02:45:09.837Z,100723.70
2018-07-17T02:47:38.556Z,100721.59
2018-07-17T02:50:07.961Z,100725.58
2018-07-17T02:52:37.074Z,100722.62
2018-07-17T02:55:09.263Z,100721.77
2018-07-17T02:57:43.038Z,100716.09
2018-07-17T03:00:12.439Z,100716.77
2018-07-17T03:02:41.911Z,100731.44
2018-07-17T03:05:11.197Z,100729.94
2018-07-17T03:07:42.465Z,100723.62
2018-07-17T03:10:11.081Z,100720.75
2018-07-17T03:12:42.825Z,100722.31
2018-07-17T03:15:11.500Z,100719.96
2018-07-17T03:17:42.774Z,100719.11
2018-07-17T03:20:11.587Z,100724.73
2018-07-17T03:22:41.279Z,100724.77
2018-07-17T03:25:09.878Z,100719.51
2018-07-17T03:27:38.484Z,100727.06
2018-07-17T03:30:08.054Z,100733.75
2018-07-17T03:32:37.654Z,100731.84
2018-07-17T03:35:06.436Z,100739.34
2018-07-17T03:37:35.114Z,100737.31
2018-07-17T03:40:03.974Z,100733.58
2018-07-17T03:42:32.815Z,100733.49
2018-07-17T03:45:03.255Z,100729.54
2018-07-17T03:47:33.083Z,100728.69
2018-07-17T03:50:01.922Z,100731.37
2018-07-17T03:52:31.369Z,100730.44
2018-07-17T03:55:00.241Z,100731.25
2018-07-17T03:57:29.359Z,100732.55
2018-07-17T03:59:58.170Z,100732.02
2018-07-17T04:02:26.750Z,100731.52
2018-07-17T04:04:55.887Z,100736.20
2018-07-17T04:07:24.426Z,100728.79
2018-07-17T04:09:53.631Z,100735.80
2018-07-17T04:12:22.507Z,100729.69
2018-07-17T04:14:51.661Z,100734.45
2018-07-17T04:17:21.653Z,100736.23
2018-07-17T04:19:50.340Z,100733.73
2018-07-17T04:22:19.028Z,100730.22
2018-07-17T04:24:47.567Z,100727.84
2018-07-17T04:27:16.333Z,100736.53
2018-07-17T04:29:45.039Z,100726.95
2018-07-17T04:32:13.607Z,100732.25
2018-07-17T04:34:42.642Z,100742.02
2018-07-17T04:37:11.158Z,100735.45
2018-07-17T04:39:39.738Z,100741.89
2018-07-17T04:42:08.297Z,100745.80
2018-07-17T04:44:37.124Z,100746.43
2018-07-17T04:47:06.307Z,100744.73
2018-07-17T04:49:35.115Z,100750.62
2018-07-17T04:52:04.094Z,100753.00
2018-07-17T04:54:32.680Z,100758.76
2018-07-17T04:57:01.374Z,100757.11
2018-07-17T04:59:31.581Z,100752.55
2018-07-17T05:02:01.182Z,100749.41
2018-07-17T05:04:30.539Z,100747.66
2018-07-17T05:06:59.246Z,100751.70
2018-07-17T05:09:27.850Z,100758.63
2018-07-17T05:11:57.270Z,100763.88
2018-07-17T05:14:27.092Z,100764.36
2018-07-17T05:16:55.821Z,100761.63
2018-07-17T05:19:24.340Z,100757.72
2018-07-17T05:21:53.338Z,100758.84
2018-07-17T05:24:22.106Z,100759.16
2018-07-17T05:26:51.003Z,100759.08
2018-07-17T05:29:20.585Z,100751.78
2018-07-17T05:31:49.294Z,100761.19
2018-07-17T05:34:18.686Z,100762.35
2018-07-17T05:36:47.338Z,100769.47
2018-07-17T05:39:15.880Z,100775.01
2018-07-17T05:41:44.490Z,100778.83
2018-07-17T05:44:13.286Z,100779.59
2018-07-17T05:46:42.377Z,100775.73
2018-07-17T05:49:11.961Z,100771.63
2018-07-17T05:51:41.792Z,100773.95
2018-07-17T05:54:10.539Z,100770.52
2018-07-17T05:56:39.447Z,100764.50
2018-07-17T05:59:08.508Z,100766.37
2018-07-17T06:01:37.124Z,100768.73
2018-07-17T06:04:06.123Z,100766.13
2018-07-17T06:06:34.830Z,100765.44
2018-07-17T06:09:04.057Z,100763.52
2018-07-17T06:11:32.631Z,100772.06
2018-07-17T06:14:01.956Z,100765.53
2018-07-17T06:16:32.166Z,100766.50
2018-07-17T06:19:01.144Z,100767.41
2018-07-17T06:21:29.869Z,100764.28
2018-07-17T06:23:58.474Z,100765.30
2018-07-17T06:26:26.936Z,100762.80
2018-07-17T06:28:56.265Z,100763.81
2018-07-17T06:31:24.821Z,100773.07
2018-07-17T06:33:53.356Z,100782.98
2018-07-17T06:36:22.809Z,100778.84
2018-07-17T06:38:52.957Z,100774.81
2018-07-17T06:41:21.978Z,100779.91
2018-07-17T06:43:52.590Z,100786.59
2018-07-17T06:46:21.201Z,100781.00
2018-07-17T06:48:51.199Z,100782.80
2018-07-17T06:51:25.679Z,100782.19
2018-07-17T06:53:54.386Z,100781.06
2018-07-17T06:56:24.064Z,100788.70
2018-07-17T06:58:52.623Z,100790.47
2018-07-17T07:01:21.367Z,100783.16
2018-07-17T07:03:51.291Z,100785.41
2018-07-17T07:06:19.942Z,100789.91
2018-07-17T07:08:48.531Z,100786.89
2018-07-17T07:11:17.148Z,100790.20
2018-07-17T07:13:46.503Z,100791.98
2018-07-17T07:16:15.158Z,100793.28
2018-07-17T07:18:43.704Z,100792.90
2018-07-17T07:21:12.568Z,100796.60
2018-07-17T07:23:41.764Z,100800.64
2018-07-17T07:26:10.536Z,100796.84
2018-07-17T07:28:39.343Z,100795.60
2018-07-17T07:31:09.020Z,100792.69
2018-07-17T07:33:38.482Z,100794.23
2018-07-17T07:36:08.048Z,100791.21
2018-07-17T07:38:36.694Z,100785.70
2018-07-17T07:41:06.335Z,100787.23
2018-07-17T07:43:35.846Z,100779.20
2018-07-17T07:46:06.210Z,100779.20
2018-07-17T07:48:34.743Z,100778.56
2018-07-17T07:51:04.236Z,100776.45
2018-07-17T07:53:34.025Z,100778.63
2018-07-17T07:56:02.792Z,100781.13
2018-07-17T07:58:31.741Z,100785.86
2018-07-17T08:01:01.210Z,100780.59
2018-07-17T08:03:31.157Z,100779.87
2018-07-17T08:06:00.421Z,100775.48
2018-07-17T08:08:30.233Z,100776.97
2018-07-17T08:11:00.421Z,100779.06
2018-07-17T08:13:29.242Z,100777.42
2018-07-17T08:15:59.058Z,100781.60
2018-07-17T08:18:27.645Z,100780.31
2018-07-17T08:20:56.200Z,100780.80
2018-07-17T08:23:24.895Z,100782.60
2018-07-17T08:25:53.538Z,100776.31
2018-07-17T08:28:22.487Z,100775.78
2018-07-17T08:30:51.011Z,100772.45
2018-07-17T08:33:19.985Z,100775.36
2018-07-17T08:35:49.367Z,100774.65
2018-07-17T08:38:18.353Z,100773.46
2018-07-17T08:40:47.009Z,100779.00
2018-07-17T08:43:15.619Z,100777.33
2018-07-17T08:45:44.687Z,100770.18
2018-07-17T08:48:13.966Z,100774.52
2018-07-17T08:50:43.492Z,100766.61
2018-07-17T08:53:12.176Z,100766.34
2018-07-17T08:55:41.604Z,100760.41
2018-07-17T08:58:10.777Z,100764.73
2018-07-17T09:00:39.378Z,100765.02
2018-07-17T09:03:08.171Z,100770.73
2018-07-17T09:05:37.060Z,100766.97
2018-07-17T09:08:05.769Z,100763.47
2018-07-17T09:10:35.207Z,100761.87
2018-07-17T09:13:04.095Z,100765.87
2018-07-17T09:15:33.591Z,100762.58
2018-07-17T09:18:02.275Z,100762.73
2018-07-17T09:20:30.825Z,100769.08
2018-07-17T09:22:59.462Z,100761.18
2018-07-17T09:25:28.112Z,100769.43
2018-07-17T09:27:57.138Z,100765.14
2018-07-17T09:30:29.889Z,100763.06
2018-07-17T09:32:58.497Z,100763.53
2018-07-17T09:35:27.143Z,100759.02
2018-07-17T09:37:56.505Z,100757.31
2018-07-17T09:40:25.722Z,100759.57
2018-07-17T09:42:55.112Z,100758.81
2018-07-17T09:45:24.411Z,100756.81
2018-07-17T09:47:53.091Z,100754.67
2018-07-17T09:50:22.612Z,100756.63
2018-07-17T09:52:51.194Z,100765.66
2018-07-17T09:55:19.805Z,100756.66
2018-07-17T09:57:48.736Z,100755.63
2018-07-17T10:00:22.741Z,100761.19
2018-07-17T10:02:51.990Z,100758.13
2018-07-17T10:05:24.145Z,100769.00
2018-07-17T10:07:53.058Z,100766.36
2018-07-17T10:10:21.671Z,100770.95
2018-07-17T10:12:50.364Z,100774.19
2018-07-17T10:15:20.082Z,100770.38
2018-07-17T10:17:49.326Z,100768.38
2018-07-17T10:20:22.776Z,100764.28
2018-07-17T10:22:51.992Z,100765.51
2018-07-17T10:25:22.009Z,100760.56
2018-07-17T10:27:50.654Z,100769.03
2018-07-17T10:30:19.346Z,100766.02
2018-07-17T10:32:47.797Z,100763.53
2018-07-17T10:35:16.770Z,100764.30
2018-07-17T10:37:46.028Z,100754.59
2018-07-17T10:40:14.534Z,100754.22
2018-07-17T10:42:43.766Z,100752.80
2018-07-17T10:45:12.297Z,100760.25
2018-07-17T10:47:41.808Z,100754.97
2018-07-17T10:50:10.344Z,100756.08
2018-07-17T10:52:38.861Z,100749.77
2018-07-17T10:55:07.576Z,100753.95
2018-07-17T10:57:36.828Z,100750.84
2018-07-17T11:00:05.814Z,100757.83
2018-07-17T11:02:35.550Z,100749.56
2018-07-17T11:05:06.078Z,100763.16
2018-07-17T11:07:34.727Z,100751.64
2018-07-17T11:10:04.416Z,100751.83
2018-07-17T11:12:33.083Z,100756.17
2018-07-17T11:15:02.464Z,100753.09
2018-07-17T11:17:31.188Z,100743.03
2018-07-17T11:19:59.737Z,100753.27
2018-07-17T11:22:28.779Z,100745.83
2018-07-17T11:24:58.816Z,100736.61
2018-07-17T11:27:28.821Z,100731.81
2018-07-17T11:29:59.927Z,100724.00
2018-07-17T11:32:28.570Z,100728.81
2018-07-17T11:34:57.728Z,100726.87
2018-07-17T11:37:26.286Z,100730.02
2018-07-17T11:39:54.832Z,100728.83
2018-07-17T11:42:24.641Z,100717.25
2018-07-17T11:44:53.810Z,100720.50
2018-07-17T11:47:22.336Z,100723.66
2018-07-17T11:49:51.384Z,100718.45
2018-07-17T11:52:20.307Z,100724.49
2018-07-17T11:54:50.058Z,100723.38
2018-07-17T11:57:18.707Z,100730.52
2018-07-17T11:59:47.428Z,100723.52
2018-07-17T12:02:15.987Z,100724.38
2018-07-17T12:04:44.954Z,100722.91
2018-07-17T12:07:13.581Z,100719.76
2018-07-17T12:09:42.155Z,100715.02
2018-07-17T12:12:10.789Z,100717.02
2018-07-17T12:14:40.387Z,100711.59
2018-07-17T12:17:09.900Z,100717.63
2018-07-17T12:19:39.923Z,100705.44
2018-07-17T12:22:09.363Z,100710.22
2018-07-17T12:24:38.777Z,100708.69
2018-07-17T12:27:07.471Z,100707.57
2018-07-17T12:29:36.037Z,100704.39
2018-07-17T12:32:05.224Z,100706.81
2018-07-17T12:34:35.860Z,100704.07
2018-07-17T12:37:05.045Z,100705.52
2018-07-17T12:39:33.936Z,100694.48
2018-07-17T12:42:02.825Z,100695.72
2018-07-17T12:44:31.423Z,100696.16
2018-07-17T12:47:00.581Z,100694.20
2018-07-17T12:49:30.416Z,100692.57
2018-07-17T12:51:59.557Z,100685.16
2018-07-17T12:54:30.545Z,100693.36
2018-07-17T12:56:59.256Z,100692.60
2018-07-17T12:59:29.508Z,100700.78
2018-07-17T13:01:59.098Z,100694.80
2018-07-17T13:04:27.820Z,100689.28
2018-07-17T13:06:57.366Z,100693.34
2018-07-17T13:09:27.746Z,100693.17
2018-07-17T13:11:56.544Z,100687.29
2018-07-17T13:14:26.336Z,100685.44
2018-07-17T13:16:55.190Z,100680.73
2018-07-17T13:19:23.736Z,100683.47
2018-07-17T13:21:52.490Z,100683.91
2018-07-17T13:24:21.049Z,100680.04
2018-07-17T13:26:50.464Z,100675.56
2018-07-17T13:29:19.142Z,100684.09
2018-07-17T13:31:48.291Z,100673.67
2018-07-17T13:34:16.792Z,100678.14
2018-07-17T13:36:45.325Z,100666.55
2018-07-17T13:39:14.039Z,100675.30
2018-07-17T13:41:42.797Z,100668.50
2018-07-17T13:44:12.423Z,100667.17
2018-07-17T13:46:41.101Z,100669.67
2018-07-17T13:49:09.739Z,100665.09
2018-07-17T13:51:38.666Z,100669.84
2018-07-17T13:54:07.375Z,100665.09
2018-07-17T13:56:35.982Z,100669.70
2018-07-17T13:59:05.872Z,100666.13
2018-07-17T14:01:34.501Z,100675.44
2018-07-17T14:04:03.135Z,100672.20
2018-07-17T14:06:31.829Z,100661.84
2018-07-17T14:09:00.309Z,100657.59
2018-07-17T14:11:29.226Z,100658.08
2018-07-17T14:13:57.891Z,100662.97
2018-07-17T14:16:26.441Z,100661.89
2018-07-17T14:18:54.985Z,100657.28
2018-07-17T14:21:23.583Z,100658.59
2018-07-17T14:23:52.126Z,100658.20
2018-07-17T14:26:21.113Z,100663.95
2018-07-17T14:30:18.788Z,100663.06
2018-07-17T14:32:48.661Z,100654.18
2018-07-17T14:35:17.185Z,100654.66
2018-07-17T14:37:46.440Z,100651.67
2018-07-17T14:40:16.165Z,100653.55
2018-07-17T14:42:45.709Z,100647.48
2018-07-17T14:45:14.627Z,100648.37
2018-07-17T14:47:43.163Z,100649.22
2018-07-17T14:50:12.654Z,100637.92
2018-07-17T14:52:41.915Z,100640.23
2018-07-17T14:55:13.025Z,100644.74
2018-07-17T14:57:43.274Z,100640.94
2018-07-17T15:00:12.586Z,100636.40
2018-07-17T15:02:41.076Z,100633.17
2018-07-17T15:05:10.461Z,100629.58
2018-07-17T15:07:40.332Z,100631.80
2018-07-17T15:10:10.310Z,100624.12
2018-07-17T15:12:39.053Z,100631.93
2018-07-17T15:15:08.097Z,100620.31
2018-07-17T15:17:37.714Z,100622.92
2018-07-17T15:20:06.688Z,100626.41
2018-07-17T15:22:35.304Z,100627.84
2018-07-17T15:25:05.083Z,100630.73
2018-07-17T15:27:33.698Z,100625.58
2018-07-17T15:30:04.396Z,100623.84
2018-07-17T15:32:32.902Z,100614.95
2018-07-17T15:35:02.495Z,100623.02
2018-07-17T15:37:31.448Z,100619.33
2018-07-17T15:40:01.177Z,100625.60
2018-07-17T15:42:29.853Z,100624.09
2018-07-17T15:44:59.073Z,100622.51
2018-07-17T15:47:27.831Z,100624.27
2018-07-17T15:49:56.542Z,100620.76
2018-07-17T15:52:25.468Z,100621.61
2018-07-17T15:54:54.096Z,100630.19
2018-07-17T15:57:22.990Z,100624.14
2018-07-17T15:59:51.761Z,100632.90
2018-07-17T16:02:21.007Z,100637.80
2018-07-17T16:04:50.831Z,100635.80
2018-07-17T16:07:19.553Z,100639.27
2018-07-17T16:09:48.043Z,100640.98
2018-07-17T16:12:16.905Z,100643.18
2018-07-17T16:14:45.886Z,100641.30
2018-07-17T16:17:16.837Z,100636.30
2018-07-17T16:19:46.477Z,100643.06
2018-07-17T16:22:15.126Z,100637.55
2018-07-17T16:24:44.537Z,100635.53
2018-07-17T16:27:14.074Z,100638.27
2018-07-17T16:29:44.610Z,100641.88
2018-07-17T16:32:13.206Z,100635.89
2018-07-17T16:34:42.054Z,100638.65
2018-07-17T16:37:10.678Z,100644.72
2018-07-17T16:39:39.506Z,100643.09
2018-07-17T16:42:10.781Z,100644.20
2018-07-17T16:44:39.619Z,100641.93
2018-07-17T16:47:09.740Z,100642.41
2018-07-17T16:49:38.411Z,100640.17
2018-07-17T16:52:07.364Z,100633.23
2018-07-17T16:54:36.610Z,100626.29
2018-07-17T16:57:05.177Z,100628.77
2018-07-17T16:59:33.648Z,100627.73
2018-07-17T17:02:03.210Z,100629.42
2018-07-17T17:04:31.692Z,100633.56
2018-07-17T17:07:01.304Z,100634.61
2018-07-17T17:09:29.712Z,100631.39
2018-07-17T17:11:58.176Z,100624.59
2018-07-17T17:14:26.760Z,100633.48
2018-07-17T17:16:55.835Z,100629.34
2018-07-17T17:19:24.824Z,100630.23
2018-07-17T17:21:54.137Z,100623.37
2018-07-17T17:24:23.324Z,100631.54
2018-07-17T17:26:51.902Z,100631.98
2018-07-17T17:29:20.420Z,100639.73
2018-07-17T17:31:50.796Z,100635.28
2018-07-17T17:34:19.338Z,100631.73
2018-07-17T17:36:47.954Z,100637.55
2018-07-17T17:39:17.568Z,100637.30
2018-07-17T17:41:46.039Z,100641.94
2018-07-17T17:44:14.582Z,100639.95
2018-07-17T17:46:44.348Z,100635.20
2018-07-17T17:49:12.975Z,100642.44
2018-07-17T17:51:42.759Z,100648.66
2018-07-17T17:54:11.372Z,100658.37
2018-07-17T17:56:39.916Z,100654.28
2018-07-17T17:59:09.847Z,100650.00
2018-07-17T18:01:38.611Z,100655.47
2018-07-17T18:04:07.175Z,100650.55
2018-07-17T18:06:39.694Z,100657.69
2018-07-17T18:09:09.724Z,100658.17
2018-07-17T18:11:38.899Z,100667.00
2018-07-17T18:14:07.391Z,100666.53
2018-07-17T18:16:36.699Z,100668.36
2018-07-17T18:19:06.778Z,100668.25
2018-07-17T18:21:35.538Z,100671.16
2018-07-17T18:24:04.314Z,100669.75
2018-07-17T18:26:35.162Z,100677.91
2018-07-17T18:29:03.895Z,100680.06
2018-07-17T18:31:33.664Z,100683.11
2018-07-17T18:34:02.205Z,100687.44
2018-07-17T18:36:31.888Z,100692.61
2018-07-17T18:39:00.757Z,100696.83
2018-07-17T18:41:32.066Z,100700.18
2018-07-17T18:44:01.074Z,100704.16
2018-07-17T18:46:32.828Z,100714.37
2018-07-17T18:49:02.379Z,100708.19
2018-07-17T18:51:32.412Z,100713.25
2018-07-17T18:54:02.080Z,100713.59
2018-07-17T18:56:33.474Z,100714.89
2018-07-17T18:59:02.220Z,100718.94
2018-07-17T19:01:31.757Z,100717.84
2018-07-17T19:04:00.358Z,100716.86
2018-07-17T19:06:29.085Z,100722.62
2018-07-17T19:08:57.693Z,100725.89
2018-07-17T19:11:26.465Z,100736.21
2018-07-17T19:13:54.928Z,100738.28
2018-07-17T19:16:23.569Z,100745.50
2018-07-17T19:18:53.762Z,100754.34
2018-07-17T19:21:22.776Z,100759.35
2018-07-17T19:23:52.160Z,100767.69
2018-07-17T19:26:22.445Z,100767.19
2018-07-17T19:28:52.738Z,100784.64
2018-07-17T19:31:21.952Z,100782.02
2018-07-17T19:33:50.592Z,100779.28
2018-07-17T19:36:20.253Z,100792.27
2018-07-17T19:38:49.382Z,100792.95
2018-07-17T19:41:18.972Z,100804.91
2018-07-17T19:43:48.130Z,100803.25
2018-07-17T19:46:16.832Z,100798.52
2018-07-17T19:48:45.525Z,100807.10
2018-07-17T19:51:15.705Z,100817.09
2018-07-17T19:53:44.653Z,100817.20
2018-07-17T19:56:14.979Z,100821.66
2018-07-17T19:58:44.237Z,100841.70
2018-07-17T20:01:14.241Z,100834.13
2018-07-17T20:03:42.929Z,100831.03
2018-07-17T20:06:11.428Z,100828.06
2018-07-17T20:08:41.063Z,100830.78
2018-07-17T20:11:10.165Z,100839.91
2018-07-17T20:13:38.694Z,100848.08
2018-07-17T20:16:07.341Z,100839.91
2018-07-17T20:18:35.837Z,100850.25
2018-07-17T20:21:04.935Z,100849.48
2018-07-17T20:23:33.500Z,100849.02
2018-07-17T20:26:02.641Z,100852.97
2018-07-17T20:28:31.838Z,100847.51
2018-07-17T20:31:01.265Z,100850.14
2018-07-17T20:33:30.890Z,100846.46
2018-07-17T20:35:59.424Z,100843.56
2018-07-17T20:38:29.820Z,100841.86
2018-07-17T20:40:58.406Z,100853.14
2018-07-17T20:43:26.964Z,100836.05
2018-07-17T20:45:55.544Z,100846.55
2018-07-17T20:48:25.946Z,100859.80
2018-07-17T20:50:54.761Z,100862.50
2018-07-17T20:53:26.693Z,100858.93
2018-07-17T20:55:57.436Z,100862.67
2018-07-17T20:58:26.191Z,100860.88
2018-07-17T21:00:55.535Z,100869.44
2018-07-17T21:03:24.457Z,100864.91
2018-07-17T21:05:53.994Z,100867.59
2018-07-17T21:08:23.381Z,100869.94
2018-07-17T21:10:52.798Z,100868.70
2018-07-17T21:13:25.148Z,100880.81
2018-07-17T21:15:55.362Z,100884.84
2018-07-17T21:18:24.436Z,100886.88
2018-07-17T21:20:53.989Z,100890.05
2018-07-17T21:23:23.654Z,100907.95
2018-07-17T21:25:52.453Z,100894.84
2018-07-17T21:28:22.109Z,100900.67
2018-07-17T21:30:51.356Z,100897.41
2018-07-17T21:33:20.187Z,100899.86
2018-07-17T21:35:49.088Z,100911.99
2018-07-17T21:38:17.852Z,100914.80
2018-07-17T21:40:47.090Z,100924.78
2018-07-17T21:43:15.805Z,100926.62
2018-07-17T21:45:44.977Z,100926.10
2018-07-17T21:48:24.413Z,100940.38
2018-07-17T21:50:53.613Z,100938.02
2018-07-17T21:53:22.198Z,100935.80
2018-07-17T21:55:51.069Z,100947.00
2018-07-17T21:58:19.694Z,100943.95
2018-07-17T22:00:48.657Z,100945.72
2018-07-17T22:03:17.458Z,100949.25
2018-07-17T22:05:47.265Z,100953.87
2018-07-17T22:08:15.877Z,100947.17
2018-07-17T22:10:45.439Z,100959.37
2018-07-17T22:13:14.286Z,100959.98
2018-07-17T22:15:42.868Z,100958.50
2018-07-17T22:18:11.529Z,100963.83
2018-07-17T22:20:40.194Z,100966.69
2018-07-17T22:23:08.815Z,100964.26
2018-07-17T22:25:38.249Z,100960.88
2018-07-17T22:28:06.946Z,100959.73
2018-07-17T22:30:35.525Z,100963.66
2018-07-17T22:33:04.100Z,100972.28
2018-07-17T22:35:32.784Z,100963.78
2018-07-17T22:38:01.534Z,100980.45
2018-07-17T22:40:30.776Z,100976.42
2018-07-17T22:42:59.412Z,100982.20
2018-07-17T22:45:28.920Z,100986.14
2018-07-17T22:47:57.774Z,100967.31
2018-07-17T22:50:26.336Z,100985.73
2018-07-17T22:52:54.956Z,100972.79
2018-07-17T22:55:23.572Z,100975.62
2018-07-17T22:57:52.396Z,100983.98
2018-07-17T23:00:21.085Z,100992.44
2018-07-17T23:02:50.327Z,100993.70
2018-07-17T23:05:18.868Z,100994.50
2018-07-17T23:07:47.554Z,100986.93
2018-07-17T23:10:16.117Z,101002.19
2018-07-17T23:12:44.870Z,100993.88
2018-07-17T23:15:13.415Z,101000.93
2018-07-17T23:17:42.059Z,101003.88
2018-07-17T23:20:10.559Z,101001.61
2018-07-17T23:25:17.397Z,101002.60
2018-07-17T23:27:46.707Z,101003.59
2018-07-17T23:30:15.909Z,101009.08
2018-07-17T23:32:45.069Z,101008.53
2018-07-17T23:35:13.804Z,101016.98
2018-07-17T23:37:47.649Z,101019.91
2018-07-17T23:40:16.374Z,101014.23
2018-07-17T23:42:45.053Z,101011.81
2018-07-17T23:45:14.543Z,101015.60
2018-07-17T23:47:43.150Z,101015.50
2018-07-17T23:50:11.716Z,101010.72
2018-07-17T23:52:41.492Z,101006.27
2018-07-17T23:55:10.350Z,101012.48
2018-07-17T23:57:38.980Z,101014.77
